createdAt,value
2023-03-01T00:01:02.627Z,47.77
2023-03-01T00:03:30.271Z,48.20
2023-03-01T00:05:57.942Z,47.84
2023-03-01T00:08:26.292Z,48.39
2023-03-01T00:11:03.153Z,48.26
2023-03-01T00:13:30.922Z,47.96
2023-03-01T00:15:58.515Z,47.79
2023-03-01T00:18:26.192Z,48.45
2023-03-01T00:20:53.915Z,48.26
2023-03-01T00:23:21.541Z,48.50
2023-03-01T00:25:49.186Z,49.13
2023-03-01T00:28:18.155Z,48.46
2023-03-01T00:30:46.473Z,48.12
2023-03-01T00:33:14.275Z,49.42
2023-03-01T00:35:41.887Z,48.44
2023-03-01T00:38:09.545Z,48.79
2023-03-01T00:40:37.926Z,49.27
2023-03-01T00:43:05.650Z,49.41
2023-03-01T00:45:34.648Z,50.03
2023-03-01T00:48:02.320Z,49.92
2023-03-01T00:50:30.029Z,49.53
2023-03-01T00:52:57.794Z,48.83
2023-03-01T00:55:25.457Z,49.38
2023-03-01T00:57:53.184Z,49.24
2023-03-01T01:00:21.288Z,49.77
2023-03-01T01:02:51.223Z,49.87
2023-03-01T01:05:21.759Z,50.60
2023-03-01T01:07:50.021Z,52.34
2023-03-01T01:10:18.409Z,52.20
2023-03-01T01:12:46.475Z,52.82
2023-03-01T01:15:15.190Z,50.55
2023-03-01T01:17:42.902Z,46.99
2023-03-01T01:20:12.804Z,45.79
2023-03-01T01:22:40.465Z,43.55
2023-03-01T01:25:08.348Z,42.52
2023-03-01T01:27:36.006Z,42.06
2023-03-01T01:30:03.691Z,42.02
2023-03-01T01:32:31.800Z,41.61
2023-03-01T01:34:59.419Z,41.55
2023-03-01T01:37:32.100Z,41.88
2023-03-01T01:40:00.442Z,42.74
2023-03-01T01:42:28.162Z,41.54
2023-03-01T01:45:10.615Z,41.27
2023-03-01T01:47:38.228Z,42.19
2023-03-01T01:50:05.980Z,42.20
2023-03-01T01:52:36.099Z,41.67
2023-03-01T01:55:05.095Z,42.63
2023-03-01T01:57:34.895Z,43.42
2023-03-01T02:00:07.070Z,42.29
2023-03-01T02:02:42.076Z,41.87
2023-03-01T02:05:12.423Z,42.06
2023-03-01T02:07:41.602Z,41.51
2023-03-01T02:10:09.844Z,41.07
2023-03-01T02:12:37.530Z,41.04
2023-03-01T02:15:05.483Z,41.53
2023-03-01T02:17:33.113Z,41.26
2023-03-01T02:20:07.863Z,40.91
2023-03-01T02:22:36.633Z,41.12
2023-03-01T02:25:08.407Z,41.02
2023-03-01T02:27:39.477Z,41.21
2023-03-01T02:30:09.010Z,40.82
2023-03-01T02:32:36.237Z,41.78
2023-03-01T02:35:07.463Z,41.92
2023-03-01T02:37:35.591Z,42.31
2023-03-01T02:40:05.244Z,41.86
2023-03-01T02:42:33.948Z,41.37
2023-03-01T02:45:01.672Z,40.94
2023-03-01T02:47:30.709Z,40.64
2023-03-01T02:49:58.372Z,40.64
2023-03-01T02:52:29.408Z,41.36
2023-03-01T02:54:58.435Z,41.83
2023-03-01T02:57:26.102Z,41.57
2023-03-01T02:59:53.938Z,41.02
2023-03-01T03:02:36.799Z,41.44
2023-03-01T03:05:11.501Z,41.47
2023-03-01T03:07:40.575Z,41.28
2023-03-01T03:10:09.160Z,40.81
2023-03-01T03:12:36.797Z,41.01
2023-03-01T03:15:09.642Z,41.29
2023-03-01T03:17:37.863Z,41.01
2023-03-01T03:20:05.991Z,41.08
2023-03-01T03:22:35.950Z,43.17
2023-03-01T03:25:03.569Z,43.08
2023-03-01T03:27:32.907Z,42.62
2023-03-01T03:30:00.536Z,42.41
2023-03-01T03:32:28.178Z,42.18
2023-03-01T03:34:55.830Z,41.62
2023-03-01T03:37:43.161Z,41.66
2023-03-01T03:40:16.291Z,42.69
2023-03-01T03:42:44.082Z,41.77
2023-03-01T03:45:11.844Z,42.32
2023-03-01T03:47:39.488Z,42.03
2023-03-01T03:50:07.463Z,41.71
2023-03-01T03:52:35.164Z,41.39
2023-03-01T03:55:02.740Z,42.02
2023-03-01T03:57:31.740Z,41.67
2023-03-01T03:59:59.327Z,41.59
2023-03-01T04:02:27.269Z,41.44
2023-03-01T04:04:54.925Z,41.41
2023-03-01T04:07:22.525Z,42.05
2023-03-01T04:09:50.228Z,42.14
2023-03-01T04:12:21.505Z,42.40
2023-03-01T04:14:50.529Z,43.18
2023-03-01T04:17:18.108Z,42.95
2023-03-01T04:19:49.633Z,42.66
2023-03-01T04:22:19.286Z,42.15
2023-03-01T04:24:47.183Z,42.47
2023-03-01T04:27:14.778Z,42.63
2023-03-01T04:29:42.433Z,42.42
2023-03-01T04:32:11.528Z,42.44
2023-03-01T04:34:39.197Z,42.09
2023-03-01T04:37:07.177Z,41.91
2023-03-01T04:39:34.826Z,41.63
2023-03-01T04:42:05.945Z,41.76
2023-03-01T04:44:33.746Z,41.96
2023-03-01T04:47:01.569Z,41.90
2023-03-01T04:49:30.949Z,41.70
2023-03-01T04:51:59.297Z,41.52
2023-03-01T04:54:27.227Z,42.14
2023-03-01T04:56:54.931Z,42.25
2023-03-01T04:59:23.418Z,42.15
2023-03-01T05:01:51.126Z,41.83
2023-03-01T05:04:19.017Z,41.58
2023-03-01T05:06:48.035Z,41.54
2023-03-01T05:09:15.632Z,41.90
2023-03-01T05:11:43.268Z,42.69
2023-03-01T05:14:11.171Z,42.28
2023-03-01T05:16:38.944Z,42.55
2023-03-01T05:19:12.364Z,43.56
2023-03-01T05:22:00.636Z,42.82
2023-03-01T05:24:29.855Z,41.77
2023-03-01T05:26:57.487Z,41.48
2023-03-01T05:29:26.890Z,42.13
2023-03-01T05:31:55.294Z,41.61
2023-03-01T05:34:24.980Z,41.54
2023-03-01T05:36:53.999Z,41.22
2023-03-01T05:39:23.325Z,40.98
2023-03-01T05:41:53.889Z,43.12
2023-03-01T05:44:21.510Z,42.00
2023-03-01T05:46:49.120Z,41.63
2023-03-01T05:49:16.997Z,41.31
2023-03-01T05:51:44.919Z,41.27
2023-03-01T05:54:12.577Z,41.09
2023-03-01T05:56:40.276Z,41.26
2023-03-01T05:59:09.267Z,41.31
2023-03-01T06:01:37.172Z,41.11
2023-03-01T06:04:05.017Z,41.68
2023-03-01T06:06:35.488Z,41.42
2023-03-01T06:09:03.145Z,41.41
2023-03-01T06:11:30.736Z,41.18
2023-03-01T06:13:58.438Z,41.28
2023-03-01T06:16:27.543Z,42.47
2023-03-01T06:18:55.175Z,42.15
2023-03-01T06:21:22.838Z,43.10
2023-03-01T06:23:50.633Z,42.38
2023-03-01T06:26:18.642Z,41.63
2023-03-01T06:28:46.968Z,40.94
2023-03-01T06:31:15.832Z,40.83
2023-03-01T06:33:45.863Z,40.13
2023-03-01T06:36:13.585Z,39.96
2023-03-01T06:38:41.574Z,40.75
2023-03-01T06:41:09.291Z,40.33
2023-03-01T06:43:36.980Z,40.96
2023-03-01T06:46:05.955Z,40.43
2023-03-01T06:48:33.813Z,40.53
2023-03-01T06:51:02.814Z,39.74
2023-03-01T06:53:30.505Z,39.82
2023-03-01T06:55:58.263Z,39.79
2023-03-01T06:58:25.953Z,39.33
2023-03-01T07:00:53.696Z,39.34
2023-03-01T07:03:21.356Z,40.01
2023-03-01T07:05:50.415Z,39.87
2023-03-01T07:08:19.419Z,39.45
2023-03-01T07:10:47.024Z,39.00
2023-03-01T07:13:14.678Z,39.08
2023-03-01T07:15:42.394Z,38.77
2023-03-01T07:18:10.165Z,38.52
2023-03-01T07:20:37.969Z,38.18
2023-03-01T07:23:05.561Z,37.92
2023-03-01T07:25:34.708Z,38.00
2023-03-01T07:28:02.310Z,38.39
2023-03-01T07:30:29.932Z,38.26
2023-03-01T07:35:16.835Z,42.05
2023-03-01T07:37:44.511Z,42.47
2023-03-01T07:40:12.996Z,43.05
2023-03-01T07:42:40.631Z,42.72
2023-03-01T07:45:08.790Z,43.55
2023-03-01T07:47:36.508Z,42.70
2023-03-01T07:50:04.747Z,41.53
2023-03-01T07:52:33.887Z,41.79
2023-03-01T07:55:01.519Z,42.45
2023-03-01T07:57:29.165Z,42.24
2023-03-01T07:59:56.838Z,41.89
2023-03-01T08:02:24.513Z,42.17
2023-03-01T08:04:52.116Z,42.22
2023-03-01T08:07:19.732Z,41.34
2023-03-01T08:09:48.744Z,40.87
2023-03-01T08:12:17.244Z,41.36
2023-03-01T08:14:44.920Z,40.64
2023-03-01T08:17:12.618Z,40.14
2023-03-01T08:19:40.346Z,41.08
2023-03-01T08:22:07.961Z,40.41
2023-03-01T08:24:35.640Z,40.27
2023-03-01T08:27:05.392Z,40.15
2023-03-01T08:29:33.166Z,39.66
2023-03-01T08:32:01.030Z,39.68
2023-03-01T08:34:28.763Z,39.08
2023-03-01T08:36:56.550Z,39.16
2023-03-01T08:39:24.280Z,38.39
2023-03-01T08:41:52.015Z,38.40
2023-03-01T08:44:21.878Z,38.67
2023-03-01T08:46:53.766Z,37.84
2023-03-01T08:49:21.627Z,38.01
2023-03-01T08:51:49.555Z,38.00
2023-03-01T08:54:17.865Z,37.18
2023-03-01T08:56:45.593Z,36.47
2023-03-01T08:59:13.375Z,36.67
2023-03-01T09:01:44.234Z,36.10
2023-03-01T09:04:12.115Z,36.25
2023-03-01T09:06:39.779Z,35.69
2023-03-01T09:09:08.849Z,35.10
2023-03-01T09:11:36.578Z,34.42
2023-03-01T09:14:07.127Z,34.77
2023-03-01T09:16:36.897Z,34.49
2023-03-01T09:19:06.189Z,35.02
2023-03-01T09:21:40.615Z,34.29
2023-03-01T09:24:08.828Z,33.69
2023-03-01T09:26:36.507Z,34.61
2023-03-01T09:29:04.320Z,34.26
2023-03-01T09:31:32.008Z,33.28
2023-03-01T09:34:02.438Z,33.97
2023-03-01T09:36:31.747Z,32.68
2023-03-01T09:39:00.813Z,32.25
2023-03-01T09:41:40.249Z,32.87
2023-03-01T09:44:10.497Z,32.87
2023-03-01T09:46:39.193Z,33.26
2023-03-01T09:49:07.651Z,32.19
2023-03-01T09:51:37.138Z,33.04
2023-03-01T09:54:05.085Z,32.56
2023-03-01T09:56:34.759Z,31.34
2023-03-01T09:59:05.543Z,30.66
2023-03-01T10:01:35.771Z,30.56
2023-03-01T10:04:28.988Z,30.74
2023-03-01T10:07:00.455Z,33.25
2023-03-01T10:09:28.155Z,31.58
2023-03-01T10:11:56.273Z,31.44
2023-03-01T10:14:27.286Z,31.07
2023-03-01T10:16:55.490Z,30.13
2023-03-01T10:19:24.782Z,30.88
2023-03-01T10:21:52.843Z,29.98
2023-03-01T10:24:22.521Z,31.26
2023-03-01T10:26:56.385Z,31.66
2023-03-01T10:29:26.123Z,30.93
2023-03-01T10:31:54.515Z,30.01
2023-03-01T10:34:24.059Z,29.46
2023-03-01T10:36:52.438Z,29.83
2023-03-01T10:39:21.018Z,30.14
2023-03-01T10:42:00.580Z,30.98
2023-03-01T10:44:38.336Z,32.30
2023-03-01T10:47:06.146Z,32.32
2023-03-01T10:49:34.080Z,30.71
2023-03-01T10:52:01.756Z,31.47
2023-03-01T10:54:30.290Z,31.13
2023-03-01T10:56:58.608Z,30.44
2023-03-01T10:59:31.418Z,30.36
2023-03-01T11:02:15.057Z,30.60
2023-03-01T11:05:00.358Z,30.29
2023-03-01T11:07:28.098Z,30.35
2023-03-01T11:09:56.005Z,30.30
2023-03-01T11:12:23.612Z,30.18
2023-03-01T11:14:53.187Z,30.06
2023-03-01T11:17:23.918Z,30.26
2023-03-01T11:20:02.807Z,31.61
2023-03-01T11:22:30.896Z,32.24
2023-03-01T11:25:09.431Z,31.74
2023-03-01T11:27:40.000Z,31.18
2023-03-01T11:30:14.522Z,32.26
2023-03-01T11:32:42.908Z,30.63
2023-03-01T11:35:12.569Z,30.18
2023-03-01T11:37:41.284Z,30.01
2023-03-01T11:40:15.805Z,29.14
2023-03-01T11:42:50.105Z,28.79
2023-03-01T11:45:19.290Z,27.75
2023-03-01T11:47:51.411Z,27.61
2023-03-01T11:50:21.435Z,27.12
2023-03-01T11:52:55.996Z,26.75
2023-03-01T11:55:29.144Z,26.30
2023-03-01T11:58:03.887Z,27.44
2023-03-01T12:00:48.672Z,28.14
2023-03-01T12:03:19.955Z,27.05
2023-03-01T12:05:50.652Z,25.75
2023-03-01T12:08:19.297Z,25.06
2023-03-01T12:10:50.885Z,22.89
2023-03-01T12:13:42.569Z,21.46
2023-03-01T12:16:23.082Z,19.70
2023-03-01T12:19:23.557Z,19.09
2023-03-01T12:21:58.066Z,18.80
2023-03-01T12:24:29.816Z,19.00
2023-03-01T12:27:00.514Z,17.88
2023-03-01T12:29:28.406Z,18.58
2023-03-01T12:32:13.356Z,18.39
2023-03-01T12:34:45.377Z,18.13
2023-03-01T12:37:19.545Z,18.05
2023-03-01T12:39:51.163Z,18.17
2023-03-01T12:42:20.582Z,19.23
2023-03-01T12:45:09.363Z,16.74
2023-03-01T12:47:43.996Z,17.00
2023-03-01T12:50:14.087Z,15.86
2023-03-01T12:52:43.178Z,16.60
2023-03-01T12:55:16.331Z,15.80
2023-03-01T12:57:44.484Z,15.95
2023-03-01T13:00:17.724Z,15.47
2023-03-01T13:02:47.943Z,15.55
2023-03-01T13:05:20.753Z,15.49
2023-03-01T13:07:51.449Z,15.36
2023-03-01T13:10:21.837Z,15.75
2023-03-01T13:12:53.127Z,16.77
2023-03-01T13:15:27.303Z,15.67
2023-03-01T13:17:56.734Z,16.11
2023-03-01T13:20:25.654Z,16.62
2023-03-01T13:23:02.942Z,17.33
2023-03-01T13:25:37.728Z,17.91
2023-03-01T13:28:27.801Z,17.58
2023-03-01T13:30:55.454Z,18.13
2023-03-01T13:33:40.828Z,17.71
2023-03-01T13:36:09.561Z,17.48
2023-03-01T13:38:42.027Z,16.46
2023-03-01T13:41:09.819Z,16.74
2023-03-01T13:43:37.747Z,15.76
2023-03-01T13:46:10.398Z,15.85
2023-03-01T13:48:39.407Z,15.52
2023-03-01T13:51:07.867Z,15.32
2023-03-01T13:53:35.995Z,15.15
2023-03-01T13:56:04.175Z,14.38
2023-03-01T13:58:32.120Z,14.16
2023-03-01T14:01:00.685Z,14.15
2023-03-01T14:03:29.132Z,13.85
2023-03-01T14:06:13.030Z,14.72
2023-03-01T14:08:42.485Z,15.82
2023-03-01T14:11:26.254Z,16.20
2023-03-01T14:13:56.936Z,16.09
2023-03-01T14:16:27.523Z,15.76
2023-03-01T14:18:57.107Z,15.78
2023-03-01T14:21:26.701Z,14.83
2023-03-01T14:23:54.591Z,14.61
2023-03-01T14:26:22.815Z,15.16
2023-03-01T14:28:50.624Z,15.04
2023-03-01T14:31:36.158Z,14.86
2023-03-01T14:34:06.235Z,14.46
2023-03-01T14:36:36.095Z,14.37
2023-03-01T14:39:06.756Z,14.10
2023-03-01T14:41:35.073Z,14.26
2023-03-01T14:44:03.669Z,13.96
2023-03-01T14:46:33.609Z,13.49
2023-03-01T14:49:03.600Z,13.75
2023-03-01T14:51:31.283Z,13.93
2023-03-01T14:54:00.273Z,14.45
2023-03-01T14:56:27.967Z,14.00
2023-03-01T14:58:55.877Z,13.94
2023-03-01T15:01:23.499Z,14.08
2023-03-01T15:03:51.438Z,14.36
2023-03-01T15:06:19.528Z,14.71
2023-03-01T15:08:48.309Z,14.88
2023-03-01T15:11:25.446Z,14.65
2023-03-01T15:13:53.678Z,14.51
2023-03-01T15:16:21.794Z,14.60
2023-03-01T15:18:50.304Z,14.96
2023-03-01T15:21:18.947Z,14.67
2023-03-01T15:23:51.528Z,15.11
2023-03-01T15:26:25.017Z,15.26
2023-03-01T15:28:53.437Z,14.79
2023-03-01T15:31:21.818Z,15.65
2023-03-01T15:33:49.563Z,14.94
2023-03-01T15:36:33.637Z,15.30
2023-03-01T15:39:01.766Z,15.31
2023-03-01T15:41:32.850Z,15.20
2023-03-01T15:44:00.912Z,15.31
2023-03-01T15:46:30.393Z,15.08
2023-03-01T15:48:58.962Z,15.12
2023-03-01T15:51:34.397Z,15.35
2023-03-01T15:54:03.156Z,15.31
2023-03-01T15:56:33.253Z,15.67
2023-03-01T15:59:01.796Z,16.15
2023-03-01T16:01:29.420Z,16.25
2023-03-01T16:03:58.451Z,16.83
2023-03-01T16:06:26.394Z,17.06
2023-03-01T16:08:54.051Z,17.30
2023-03-01T16:11:21.904Z,17.60
2023-03-01T16:13:51.078Z,18.15
2023-03-01T16:16:18.892Z,18.35
2023-03-01T16:18:47.074Z,18.75
2023-03-01T16:21:19.890Z,18.61
2023-03-01T16:23:47.561Z,19.35
2023-03-01T16:26:15.202Z,19.88
2023-03-01T16:28:42.917Z,21.16
2023-03-01T16:31:11.943Z,21.92
2023-03-01T16:33:40.330Z,22.78
2023-03-01T16:36:09.138Z,23.46
2023-03-01T16:38:36.990Z,23.95
2023-03-01T16:41:04.685Z,24.25
2023-03-01T16:43:35.052Z,24.26
2023-03-01T16:46:05.024Z,24.70
2023-03-01T16:48:34.128Z,25.02
2023-03-01T16:51:02.005Z,25.54
2023-03-01T16:53:29.656Z,25.96
2023-03-01T16:55:57.623Z,26.46
2023-03-01T16:58:26.128Z,26.98
2023-03-01T17:00:54.648Z,27.38
2023-03-01T17:03:22.557Z,27.37
2023-03-01T17:05:51.656Z,27.44
2023-03-01T17:08:19.348Z,27.87
2023-03-01T17:10:47.225Z,27.96
2023-03-01T17:13:14.887Z,28.35
2023-03-01T17:15:42.835Z,28.10
2023-03-01T17:18:10.561Z,28.16
2023-03-01T17:20:38.165Z,28.93
2023-03-01T17:23:07.223Z,29.31
2023-03-01T17:25:34.905Z,29.95
2023-03-01T17:28:02.554Z,30.57
2023-03-01T17:30:30.320Z,30.88
2023-03-01T17:32:58.014Z,31.33
2023-03-01T17:35:25.686Z,31.15
2023-03-01T17:37:53.376Z,31.60
2023-03-01T17:40:22.443Z,31.88
2023-03-01T17:42:50.031Z,32.30
2023-03-01T17:45:17.762Z,32.24
2023-03-01T17:47:45.458Z,32.54
2023-03-01T17:50:13.350Z,32.99
2023-03-01T17:52:42.465Z,32.93
2023-03-01T17:55:10.506Z,33.05
2023-03-01T17:57:40.660Z,32.95
2023-03-01T18:00:08.964Z,33.78
2023-03-01T18:02:39.427Z,34.06
2023-03-01T18:05:07.630Z,34.47
2023-03-01T18:07:35.308Z,35.12
2023-03-01T18:10:03.060Z,34.82
2023-03-01T18:12:32.520Z,34.93
2023-03-01T18:15:01.564Z,35.82
2023-03-01T18:17:29.249Z,36.25
2023-03-01T18:19:57.206Z,36.12
2023-03-01T18:22:24.810Z,36.25
2023-03-01T18:24:52.488Z,35.69
2023-03-01T18:27:20.077Z,34.76
2023-03-01T18:29:47.764Z,34.30
2023-03-01T18:32:16.999Z,33.70
2023-03-01T18:34:45.410Z,32.84
2023-03-01T18:37:13.041Z,32.67
2023-03-01T18:39:41.625Z,32.74
2023-03-01T18:42:09.524Z,32.37
2023-03-01T18:44:38.354Z,32.30
2023-03-01T18:47:06.033Z,32.81
2023-03-01T18:49:35.070Z,33.11
2023-03-01T18:52:02.730Z,32.93
2023-03-01T18:54:30.326Z,33.23
2023-03-01T18:56:57.925Z,33.39
2023-03-01T18:59:25.515Z,34.53
2023-03-01T19:01:53.226Z,34.09
2023-03-01T19:04:21.149Z,34.11
2023-03-01T19:06:50.149Z,33.68
2023-03-01T19:09:17.824Z,34.16
2023-03-01T19:11:45.505Z,34.29
2023-03-01T19:14:13.145Z,34.39
2023-03-01T19:16:40.742Z,34.74
2023-03-01T19:19:09.973Z,34.88
2023-03-01T19:21:37.839Z,35.01
2023-03-01T19:24:07.380Z,35.00
2023-03-01T19:26:35.605Z,35.07
2023-03-01T19:29:04.856Z,34.91
2023-03-01T19:31:32.533Z,35.20
2023-03-01T19:34:10.513Z,35.74
2023-03-01T19:36:38.539Z,36.07
2023-03-01T19:39:07.780Z,36.10
2023-03-01T19:41:35.644Z,36.54
2023-03-01T19:44:05.400Z,36.26
2023-03-01T19:46:33.643Z,36.62
2023-03-01T19:49:03.087Z,37.12
2023-03-01T19:51:33.219Z,37.22
2023-03-01T19:54:00.849Z,37.15
2023-03-01T19:56:30.383Z,37.83
2023-03-01T19:59:00.578Z,38.09
2023-03-01T20:01:29.744Z,38.92
2023-03-01T20:03:57.519Z,38.96
2023-03-01T20:06:25.665Z,39.24
2023-03-01T20:08:53.477Z,39.31
2023-03-01T20:11:21.146Z,40.12
2023-03-01T20:13:50.140Z,39.85
2023-03-01T20:16:18.205Z,40.37
2023-03-01T20:18:45.916Z,40.36
2023-03-01T20:21:23.654Z,40.33
2023-03-01T20:23:52.279Z,40.87
2023-03-01T20:26:20.462Z,40.77
2023-03-01T20:28:48.517Z,39.88
2023-03-01T20:31:18.218Z,39.41
2023-03-01T20:33:45.914Z,39.48
2023-03-01T20:36:13.653Z,39.06
2023-03-01T20:38:41.304Z,39.23
2023-03-01T20:41:09.486Z,39.39
2023-03-01T20:43:37.374Z,39.97
2023-03-01T20:46:05.317Z,39.56
2023-03-01T20:48:34.465Z,39.79
2023-03-01T20:51:05.606Z,39.64
2023-03-01T20:53:33.236Z,39.19
2023-03-01T20:56:02.924Z,39.56
2023-03-01T20:58:32.660Z,39.01
2023-03-01T21:01:00.434Z,39.42
2023-03-01T21:03:28.103Z,39.03
2023-03-01T21:05:57.590Z,39.09
2023-03-01T21:08:25.270Z,39.10
2023-03-01T21:10:53.025Z,39.67
2023-03-01T21:13:20.674Z,39.91
2023-03-01T21:15:53.094Z,39.69
2023-03-01T21:18:20.769Z,39.93
2023-03-01T21:20:48.401Z,40.86
2023-03-01T21:23:19.326Z,40.68
2023-03-01T21:25:47.028Z,40.55
2023-03-01T21:28:14.708Z,43.77
2023-03-01T21:30:42.547Z,42.93
2023-03-01T21:33:10.302Z,41.52
2023-03-01T21:35:38.068Z,40.92
2023-03-01T21:38:05.896Z,40.72
2023-03-01T21:40:34.915Z,40.46
2023-03-01T21:43:02.550Z,40.72
2023-03-01T21:45:30.401Z,40.46
2023-03-01T21:47:58.081Z,40.16
2023-03-01T21:50:25.868Z,39.77
2023-03-01T21:52:53.529Z,39.83
2023-03-01T21:55:21.209Z,39.72
2023-03-01T21:57:50.260Z,39.84
2023-03-01T22:00:18.670Z,39.84
2023-03-01T22:02:46.380Z,40.44
2023-03-01T22:05:14.137Z,40.29
2023-03-01T22:07:41.834Z,40.50
2023-03-01T22:10:09.945Z,40.30
2023-03-01T22:12:37.657Z,40.33
2023-03-01T22:15:07.553Z,42.00
2023-03-01T22:17:35.203Z,41.20
2023-03-01T22:20:02.881Z,41.17
2023-03-01T22:22:30.585Z,41.20
2023-03-01T22:24:58.193Z,41.18
2023-03-01T22:27:25.808Z,41.03
2023-03-01T22:29:53.453Z,41.35
2023-03-01T22:32:22.696Z,41.25
2023-03-01T22:34:50.446Z,41.63
2023-03-01T22:37:18.044Z,41.05
2023-03-01T22:39:45.740Z,41.28
2023-03-01T22:42:13.447Z,41.29
2023-03-01T22:44:41.783Z,40.80
2023-03-01T22:47:09.381Z,41.00
2023-03-01T22:49:38.488Z,40.70
2023-03-01T22:52:06.298Z,40.92
2023-03-01T22:54:34.065Z,41.15
2023-03-01T22:57:01.701Z,40.97
2023-03-01T22:59:29.292Z,41.19
2023-03-01T23:01:57.200Z,41.30
2023-03-01T23:04:24.852Z,41.48
2023-03-01T23:06:54.885Z,41.51
2023-03-01T23:09:23.925Z,41.44
2023-03-01T23:11:51.604Z,41.28
2023-03-01T23:14:19.435Z,41.41
2023-03-01T23:16:47.077Z,41.53
2023-03-01T23:19:16.445Z,41.53
2023-03-01T23:21:46.752Z,41.94
2023-03-01T23:24:15.894Z,41.84
2023-03-01T23:26:45.581Z,41.54
2023-03-01T23:29:13.414Z,41.54
2023-03-01T23:31:41.051Z,41.97
2023-03-01T23:34:08.741Z,42.18
2023-03-01T23:36:36.334Z,41.70
2023-03-01T23:39:05.262Z,41.80
2023-03-01T23:41:35.187Z,41.75
2023-03-01T23:44:03.312Z,41.93
2023-03-01T23:46:32.099Z,41.98
2023-03-01T23:49:00.111Z,42.12
2023-03-01T23:51:27.995Z,42.21
2023-03-01T23:53:56.143Z,42.07
2023-03-01T23:56:26.633Z,42.27
2023-03-01T23:58:56.475Z,42.38
